Saturday, November 18, 2017, 6:07 PM EST
Back to Local

KFVE, Northern Aroostook Regional

Location: Saint Agatha, ME, United States Lat: 47.283
Local Time: 6:07 PM EST (23:07 GMT) Lon: -68.3
Time Zone: US/Eastern Elev: 987 ft

Show me the last for .
Show Decoded

2017-11-18 17:53 METAR KFVE 182253Z AUTO 06008KT 10SM OVC100 M06/M07 A2968 RMK AO2 SLP066
                 T10561072 =
2017-11-18 16:53 METAR KFVE 182153Z AUTO 09005KT 10SM SCT110 M06/M07 A2970 RMK AO2 SLP071
                 T10561072 =
2017-11-18 15:53 METAR KFVE 182053Z AUTO 09003KT 10SM CLR M05/M07 A2973 RMK AO2 SLP081 T10501072
                 58001 =
2017-11-18 14:53 METAR KFVE 181953Z AUTO 17003KT 10SM FEW120 M04/M07 A2973 RMK AO2 SLP081
                 T10441072 =
2017-11-18 13:53 METAR KFVE 181853Z AUTO 00000KT 10SM SCT013 OVC110 M04/M07 A2974 RMK AO2 SLP083
                 T10441072 =
2017-11-18 12:53 METAR KFVE 181753Z AUTO 00000KT 10SM OVC100 M05/M08 A2973 RMK AO2 SLP081
                 T10501078 11044 21094 58022 =
2017-11-18 11:53 METAR KFVE 181653Z AUTO 35005KT 10SM OVC100 M05/M08 A2975 RMK AO2 SLP089
                 T10501083 =
2017-11-18 10:53 METAR KFVE 181553Z AUTO 34004KT 10SM SCT013 M05/M08 A2980 RMK AO2 SLP104
                 T10501083 =
2017-11-18 09:53 METAR KFVE 181453Z AUTO 29009KT 10SM OVC014 M06/M09 A2983 RMK AO2 SLP115
                 T10611094 51008 =
2017-11-18 09:17 METAR KFVE 181417Z AUTO 31004KT 10SM BKN014 M06/M09 A2984 RMK AO2 T10611094 =
2017-11-18 08:53 METAR KFVE 181353Z AUTO 32007KT 10SM CLR M07/M11 A2983 RMK AO2 SLP115 T10721106
                 =
2017-11-18 07:53 METAR KFVE 181253Z AUTO 32009KT 10SM CLR M08/M11 A2981 RMK AO2 SLP110 T10831111
                 =
2017-11-18 06:53 METAR KFVE 181153Z AUTO 32008KT 10SM CLR M09/M11 A2980 RMK AO2 SLP108 70001
                 T10941111 11072 21094 51015 =
2017-11-18 06:26 METAR KFVE 181126Z AUTO 33013KT 10SM SCT011 M09/M11 A2979 RMK AO2 T10891111 =
2017-11-18 05:53 METAR KFVE 181053Z AUTO 32010KT 10SM OVC012 M09/M11 A2978 RMK AO2 SLP101
                 T10891106 =
2017-11-18 04:53 METAR KFVE 180953Z AUTO 33010G18KT 10SM OVC014 M08/M11 A2978 RMK AO2 SLP100
                 T10831111 =
2017-11-18 04:04 METAR KFVE 180904Z AUTO 31014G23KT 10SM BKN014 M08/M11 A2976 RMK AO2 T10831111 =
2017-11-18 03:53 METAR KFVE 180853Z AUTO 32013KT 10SM OVC015 M08/M11 A2976 RMK AO2 SLP091
                 T10831111 52005 =
2017-11-18 02:53 METAR KFVE 180753Z AUTO 33015G22KT 10SM OVC015 M08/M11 A2975 RMK AO2 SLP088
                 T10781106 =
2017-11-18 02:42 METAR KFVE 180742Z AUTO 34012G21KT 10SM OVC015 M08/M11 A2975 RMK AO2 T10781106 =
2017-11-18 01:53 METAR KFVE 180653Z AUTO 31010G21KT 10SM OVC014 M07/M10 A2975 RMK AO2 PK WND
                 32026/0603 SLP086 T10721100 =
2017-11-18 00:53 METAR KFVE 180553Z AUTO 33011G25KT 10SM OVC014 M07/M10 A2974 RMK AO2 SLP084
                 T10721100 11061 21072 50005 =
2017-11-17 23:53 METAR KFVE 180453Z AUTO 32013G21KT 10SM OVC014 M07/M10 A2975 RMK AO2 SLP087
                 T10721100 400001072 =
2017-11-17 23:36 METAR KFVE 180436Z AUTO 31012G23KT 10SM OVC014 M07/M10 A2975 RMK AO2 T10721100 =
2017-11-17 22:53 METAR KFVE 180353Z AUTO 32014G30KT 10SM OVC016 M07/M10 A2974 RMK AO2 PK WND
                 32030/0347 SLP082 T10671100 =
2017-11-17 21:53 METAR KFVE 180253Z AUTO 32016G24KT 10SM OVC016 M07/M09 A2973 RMK AO2 PK WND
                 32029/0240 SLP078 T10671094 51015 =
2017-11-17 20:53 METAR KFVE 180153Z AUTO 31016G27KT 10SM OVC015 M07/M09 A2972 RMK AO2 PK WND
                 30031/0103 SLP078 T10671094 =
2017-11-17 19:53 METAR KFVE 180053Z AUTO 32016G25KT 10SM OVC015 M07/M09 A2971 RMK AO2 PK WND
                 32031/0029 SLP071 T10671094 =
2017-11-17 18:53 METAR KFVE 172353Z AUTO 32013G27KT 10SM OVC016 M06/M09 A2968 RMK AO2 PK WND
                 31032/2324 SNB13E21 SLP062 P0000 60000 T10611089 11033 21061 51017 =

Support USWX by starting your Amazon purchase here.